createdAt,value
2022-11-29T00:00:02.740Z,8.40
2022-11-29T00:02:52.222Z,8.52
2022-11-29T00:05:37.670Z,8.00
2022-11-29T00:08:24.103Z,7.65
2022-11-29T00:11:35.398Z,8.55
2022-11-29T00:14:21.645Z,8.88
2022-11-29T00:17:07.841Z,8.30
2022-11-29T00:19:53.590Z,8.88
2022-11-29T00:22:39.261Z,9.65
2022-11-29T00:25:24.459Z,8.95
2022-11-29T00:28:09.944Z,9.48
2022-11-29T00:30:55.615Z,11.48
2022-11-29T00:33:41.215Z,12.40
2022-11-29T00:36:27.173Z,12.48
2022-11-29T00:39:13.427Z,12.18
2022-11-29T00:41:58.702Z,12.70
2022-11-29T00:44:44.930Z,13.45
2022-11-29T00:47:30.792Z,14.27
2022-11-29T00:50:16.595Z,17.38
2022-11-29T00:53:02.018Z,21.88
2022-11-29T00:55:54.417Z,22.63
2022-11-29T00:58:39.909Z,20.88
2022-11-29T01:01:25.225Z,21.52
2022-11-29T01:04:10.781Z,21.10
2022-11-29T01:06:56.396Z,23.00
2022-11-29T01:09:41.902Z,21.38
2022-11-29T01:12:27.517Z,19.98
2022-11-29T01:15:13.068Z,19.05
2022-11-29T01:17:58.452Z,17.15
2022-11-29T01:20:44.033Z,16.23
2022-11-29T01:23:29.640Z,15.63
2022-11-29T01:26:22.108Z,16.65
2022-11-29T01:29:07.850Z,18.50
2022-11-29T01:31:53.431Z,15.93
2022-11-29T01:34:39.451Z,17.73
2022-11-29T01:37:25.182Z,18.13
2022-11-29T01:40:11.048Z,18.80
2022-11-29T01:42:56.582Z,17.90
2022-11-29T01:45:42.299Z,18.67
2022-11-29T01:48:30.935Z,19.45
2022-11-29T01:51:16.586Z,17.77
2022-11-29T01:54:03.682Z,18.75
2022-11-29T01:56:50.920Z,18.33
2022-11-29T01:59:40.801Z,20.58
2022-11-29T02:02:45.384Z,20.80
2022-11-29T02:05:30.868Z,19.83
2022-11-29T02:08:23.592Z,21.50
2022-11-29T02:11:22.109Z,19.87
2022-11-29T02:14:28.626Z,19.90
2022-11-29T02:17:21.334Z,19.92
2022-11-29T02:20:40.650Z,18.88
2022-11-29T02:23:50.645Z,20.30
2022-11-29T02:27:03.189Z,18.60
2022-11-29T02:30:08.733Z,21.50
2022-11-29T02:32:59.745Z,20.08
2022-11-29T02:36:52.628Z,22.45
2022-11-29T02:40:10.843Z,20.92
2022-11-29T02:43:18.841Z,21.30
2022-11-29T02:46:33.868Z,21.45
2022-11-29T02:49:34.350Z,21.58
2022-11-29T02:52:39.100Z,23.42
2022-11-29T02:55:56.279Z,21.10
2022-11-29T02:58:51.425Z,23.13
2022-11-29T03:02:03.110Z,21.88
2022-11-29T03:05:03.554Z,24.10
2022-11-29T03:08:06.502Z,22.65
2022-11-29T03:11:19.766Z,21.17
2022-11-29T03:14:29.505Z,23.10
2022-11-29T03:17:35.322Z,23.25
2022-11-29T03:20:23.370Z,23.63
2022-11-29T03:23:14.519Z,21.70
2022-11-29T03:26:29.622Z,22.65
2022-11-29T03:29:29.644Z,24.48
2022-11-29T03:32:33.253Z,27.52
2022-11-29T03:35:27.469Z,25.65
2022-11-29T03:38:21.896Z,25.73
2022-11-29T03:41:29.107Z,23.20
2022-11-29T03:44:27.929Z,24.05
2022-11-29T03:47:18.408Z,23.80
2022-11-29T03:50:13.816Z,23.65
2022-11-29T03:53:14.872Z,21.77
2022-11-29T03:56:03.564Z,22.48
2022-11-29T03:58:58.228Z,18.10
2022-11-29T04:02:12.344Z,17.98
2022-11-29T04:05:25.689Z,18.60
2022-11-29T04:09:03.315Z,18.92
2022-11-29T04:11:59.781Z,18.23
2022-11-29T04:15:03.832Z,17.55
2022-11-29T04:18:07.508Z,18.35
2022-11-29T04:24:18.131Z,15.45
2022-11-29T04:27:09.692Z,16.52
2022-11-29T04:30:13.065Z,16.95
2022-11-29T04:33:37.476Z,17.45
2022-11-29T04:36:49.025Z,17.40
2022-11-29T04:39:58.676Z,17.67
2022-11-29T04:43:20.589Z,18.63
2022-11-29T04:46:41.564Z,21.25
2022-11-29T04:49:45.912Z,22.15
2022-11-29T04:52:48.988Z,21.92
2022-11-29T04:56:21.485Z,23.47
2022-11-29T04:59:32.314Z,22.70
2022-11-29T05:02:45.275Z,23.90
2022-11-29T05:05:35.543Z,23.35
2022-11-29T05:08:58.697Z,20.23
2022-11-29T05:12:04.490Z,22.20
2022-11-29T05:15:04.713Z,22.67
2022-11-29T05:18:11.624Z,22.25
2022-11-29T05:21:08.662Z,22.98
2022-11-29T05:24:16.803Z,21.02
2022-11-29T05:27:20.510Z,24.00
2022-11-29T05:30:16.591Z,21.50
2022-11-29T05:33:20.148Z,18.77
2022-11-29T05:36:34.084Z,14.90
2022-11-29T05:39:55.968Z,13.90
2022-11-29T05:43:07.259Z,15.70
2022-11-29T05:45:52.369Z,16.67
2022-11-29T05:48:46.438Z,14.13
2022-11-29T05:52:19.719Z,16.42
2022-11-29T05:55:13.922Z,16.90
2022-11-29T05:58:14.861Z,15.30
2022-11-29T06:01:14.504Z,14.35
2022-11-29T06:04:21.772Z,15.20
2022-11-29T06:07:16.851Z,16.50
2022-11-29T06:10:11.577Z,15.98
2022-11-29T06:13:23.387Z,15.40
2022-11-29T06:16:29.673Z,14.80
2022-11-29T06:19:56.416Z,15.98
2022-11-29T06:22:59.990Z,15.48
2022-11-29T06:26:11.492Z,13.45
2022-11-29T06:29:33.230Z,13.40
2022-11-29T06:32:24.448Z,12.90
2022-11-29T06:35:35.867Z,10.38
2022-11-29T06:38:23.659Z,11.93
2022-11-29T06:41:13.905Z,12.25
2022-11-29T06:43:59.906Z,11.52
2022-11-29T06:46:48.472Z,12.55
2022-11-29T06:49:38.216Z,13.23
2022-11-29T06:52:41.255Z,14.82
2022-11-29T06:55:39.025Z,14.98
2022-11-29T06:59:11.104Z,15.43
2022-11-29T07:02:12.990Z,17.08
2022-11-29T07:05:40.835Z,17.02
2022-11-29T07:08:26.340Z,12.82
2022-11-29T07:11:14.431Z,13.43
2022-11-29T07:14:33.139Z,13.27
2022-11-29T07:17:46.797Z,12.38
2022-11-29T07:21:10.089Z,14.35
2022-11-29T07:24:01.180Z,13.13
2022-11-29T07:26:59.467Z,13.90
2022-11-29T07:29:50.958Z,15.00
2022-11-29T07:33:05.141Z,13.90
2022-11-29T07:39:20.790Z,13.30
2022-11-29T07:42:29.151Z,14.43
2022-11-29T07:45:32.282Z,11.75
2022-11-29T07:48:18.352Z,12.88
2022-11-29T07:51:04.033Z,12.10
2022-11-29T07:53:49.366Z,11.77
2022-11-29T07:56:34.729Z,12.43
2022-11-29T07:59:20.509Z,13.20
2022-11-29T08:02:11.529Z,12.48
2022-11-29T08:04:58.232Z,13.48
2022-11-29T08:07:43.707Z,14.77
2022-11-29T08:10:29.137Z,16.35
2022-11-29T08:13:14.706Z,14.70
2022-11-29T08:16:00.270Z,14.75
2022-11-29T08:18:45.723Z,14.32
2022-11-29T08:21:31.150Z,14.32
2022-11-29T08:24:16.607Z,14.88
2022-11-29T08:27:02.204Z,14.07
2022-11-29T08:29:47.877Z,14.35
2022-11-29T08:32:34.443Z,13.25
2022-11-29T08:35:21.643Z,13.77
2022-11-29T08:38:07.212Z,14.40
2022-11-29T08:40:52.846Z,14.18
2022-11-29T08:43:38.244Z,15.35
2022-11-29T08:46:43.926Z,14.20
2022-11-29T08:49:29.356Z,13.13
2022-11-29T08:52:33.409Z,12.63
2022-11-29T08:55:20.745Z,13.30
2022-11-29T08:58:11.542Z,13.43
2022-11-29T09:00:57.394Z,13.90
2022-11-29T09:04:02.406Z,13.50
2022-11-29T09:06:49.720Z,13.27
2022-11-29T09:09:35.266Z,12.90
2022-11-29T09:12:21.106Z,13.98
2022-11-29T09:15:08.889Z,12.98
2022-11-29T09:17:54.385Z,14.60
2022-11-29T09:20:43.885Z,12.95
2022-11-29T09:23:29.306Z,12.52
2022-11-29T09:26:19.416Z,11.35
2022-11-29T09:29:07.121Z,11.23
2022-11-29T09:31:56.560Z,10.77
2022-11-29T09:34:42.452Z,9.10
2022-11-29T09:37:28.053Z,9.10
2022-11-29T09:40:22.441Z,9.82
2022-11-29T09:43:24.123Z,8.85
2022-11-29T09:46:18.812Z,9.80
2022-11-29T09:49:20.029Z,9.57
2022-11-29T09:52:12.767Z,11.48
2022-11-29T09:55:23.806Z,9.85
2022-11-29T09:58:15.746Z,10.02
2022-11-29T10:01:06.318Z,8.88
2022-11-29T10:04:01.379Z,10.02
2022-11-29T10:07:24.498Z,10.60
2022-11-29T10:10:23.200Z,10.68
2022-11-29T10:13:38.142Z,11.50
2022-11-29T10:17:10.048Z,10.63
2022-11-29T10:20:03.553Z,11.35
2022-11-29T10:25:51.706Z,11.07
2022-11-29T10:28:37.853Z,12.45
2022-11-29T10:31:40.236Z,11.57
2022-11-29T10:34:26.618Z,11.70
2022-11-29T10:37:17.208Z,10.60
2022-11-29T10:40:08.057Z,11.93
2022-11-29T10:42:53.853Z,11.85
2022-11-29T10:45:50.676Z,12.52
2022-11-29T10:48:36.280Z,12.23
2022-11-29T10:51:22.069Z,13.13
2022-11-29T10:54:32.511Z,11.98
2022-11-29T10:57:20.781Z,12.55
2022-11-29T11:00:09.210Z,11.77
2022-11-29T11:02:54.529Z,11.48
2022-11-29T11:05:40.252Z,11.95
2022-11-29T11:08:26.611Z,10.30
2022-11-29T11:11:13.406Z,11.30
2022-11-29T11:14:05.432Z,12.18
2022-11-29T11:16:51.542Z,11.02
2022-11-29T11:19:37.217Z,12.38
2022-11-29T11:22:24.063Z,11.43
2022-11-29T11:25:26.287Z,10.98
2022-11-29T11:28:21.552Z,10.20
2022-11-29T11:31:09.084Z,11.30
2022-11-29T11:33:54.959Z,11.25
2022-11-29T11:36:40.196Z,13.20
2022-11-29T11:39:28.537Z,11.82
2022-11-29T11:42:37.299Z,13.95
2022-11-29T11:45:26.035Z,15.02
2022-11-29T11:48:16.167Z,13.85
2022-11-29T11:51:02.041Z,15.90
2022-11-29T11:53:51.667Z,15.85
2022-11-29T11:56:37.396Z,15.68
2022-11-29T11:59:26.383Z,17.88
2022-11-29T12:02:36.641Z,16.75
2022-11-29T12:05:22.422Z,16.40
2022-11-29T12:08:11.129Z,16.42
2022-11-29T12:11:07.054Z,16.08
2022-11-29T12:13:57.242Z,15.68
2022-11-29T12:16:44.504Z,15.77
2022-11-29T12:19:37.370Z,15.73
2022-11-29T12:22:30.134Z,14.13
2022-11-29T12:25:23.270Z,17.15
2022-11-29T12:28:14.629Z,17.73
2022-11-29T12:31:23.919Z,17.50
2022-11-29T12:34:42.382Z,16.27
2022-11-29T12:37:35.683Z,16.58
2022-11-29T12:40:49.410Z,16.27
2022-11-29T12:44:07.791Z,16.83
2022-11-29T12:47:41.660Z,16.52
2022-11-29T12:50:32.127Z,16.05
2022-11-29T12:53:43.864Z,17.15
2022-11-29T12:56:40.112Z,16.52
2022-11-29T12:59:44.489Z,15.35
2022-11-29T13:02:38.881Z,16.63
2022-11-29T13:05:46.203Z,13.77
2022-11-29T13:08:56.535Z,10.45
2022-11-29T13:12:00.358Z,9.18
2022-11-29T13:15:05.461Z,8.80
2022-11-29T13:18:26.917Z,8.30
2022-11-29T13:21:21.713Z,8.68
2022-11-29T13:24:11.965Z,8.38
2022-11-29T13:26:59.233Z,8.05
2022-11-29T13:29:51.668Z,8.80
2022-11-29T13:32:54.931Z,9.07
2022-11-29T13:36:01.793Z,8.80
2022-11-29T13:39:07.767Z,7.90
2022-11-29T13:42:29.947Z,9.38
2022-11-29T13:45:40.587Z,7.55
2022-11-29T13:48:29.296Z,8.23
2022-11-29T13:51:26.223Z,8.70
2022-11-29T13:54:34.702Z,9.07
2022-11-29T13:57:26.433Z,9.30
2022-11-29T14:00:33.585Z,10.77
2022-11-29T14:03:21.986Z,8.65
2022-11-29T14:06:21.657Z,9.52
2022-11-29T14:09:24.953Z,10.25
2022-11-29T14:12:38.760Z,9.95
2022-11-29T14:15:30.781Z,10.40
2022-11-29T14:18:38.241Z,10.32
2022-11-29T14:21:23.748Z,9.43
2022-11-29T14:24:37.210Z,11.13
2022-11-29T14:27:22.433Z,11.88
2022-11-29T14:30:40.565Z,10.98
2022-11-29T14:33:37.508Z,9.75
2022-11-29T14:36:53.897Z,9.45
2022-11-29T14:39:49.048Z,9.15
2022-11-29T14:42:34.527Z,9.13
2022-11-29T14:45:27.801Z,10.32
2022-11-29T14:48:31.654Z,9.00
2022-11-29T14:51:19.951Z,9.98
2022-11-29T14:54:19.632Z,9.38
2022-11-29T14:57:42.771Z,10.98
2022-11-29T15:00:35.241Z,10.93
2022-11-29T15:03:33.222Z,10.43
2022-11-29T15:06:27.601Z,10.45
2022-11-29T15:09:22.811Z,11.50
2022-11-29T15:12:17.210Z,17.00
2022-11-29T15:15:37.527Z,20.92
2022-11-29T15:18:50.464Z,16.27
2022-11-29T15:22:00.421Z,13.55
2022-11-29T15:25:02.155Z,12.48
2022-11-29T15:27:59.001Z,12.82
2022-11-29T15:30:47.426Z,12.27
2022-11-29T15:33:39.370Z,12.20
2022-11-29T15:36:26.434Z,11.77
2022-11-29T15:39:29.846Z,11.95
2022-11-29T15:42:15.960Z,12.93
2022-11-29T15:45:01.655Z,11.60
2022-11-29T15:47:48.203Z,11.85
2022-11-29T15:50:34.755Z,14.90
2022-11-29T15:53:28.725Z,15.20
2022-11-29T15:56:37.432Z,15.18
2022-11-29T15:59:38.014Z,14.50
2022-11-29T16:02:30.733Z,14.30
2022-11-29T16:05:24.974Z,13.18
2022-11-29T16:08:17.847Z,14.10
2022-11-29T16:11:05.141Z,14.30
2022-11-29T16:14:16.734Z,14.93
2022-11-29T16:17:03.948Z,14.63
2022-11-29T16:19:49.821Z,13.50
2022-11-29T16:22:35.097Z,14.98
2022-11-29T16:25:21.133Z,16.85
2022-11-29T16:28:12.501Z,16.75
2022-11-29T16:30:59.945Z,15.73
2022-11-29T16:33:47.547Z,16.65
2022-11-29T16:36:33.099Z,15.88
2022-11-29T16:39:25.678Z,15.77
2022-11-29T16:42:24.923Z,17.30
2022-11-29T16:45:41.220Z,15.30
2022-11-29T16:48:31.318Z,16.15
2022-11-29T16:51:28.292Z,15.57
2022-11-29T16:54:22.962Z,17.00
2022-11-29T16:57:09.614Z,18.52
2022-11-29T16:59:54.940Z,19.98
2022-11-29T17:02:40.712Z,17.80
2022-11-29T17:05:26.719Z,16.33
2022-11-29T17:08:12.647Z,17.52
2022-11-29T17:10:58.225Z,18.25
2022-11-29T17:13:43.498Z,19.80
2022-11-29T17:16:29.461Z,18.38
2022-11-29T17:19:15.428Z,19.23
2022-11-29T17:22:01.056Z,20.20
2022-11-29T17:24:48.536Z,19.02
2022-11-29T17:27:35.357Z,19.48
2022-11-29T17:30:21.027Z,19.08
2022-11-29T17:33:06.365Z,18.38
2022-11-29T17:35:51.922Z,20.67
2022-11-29T17:38:37.955Z,18.92
2022-11-29T17:41:25.221Z,18.95
2022-11-29T17:44:10.480Z,19.58
2022-11-29T17:46:56.249Z,20.20
2022-11-29T17:49:41.469Z,19.80
2022-11-29T17:52:27.182Z,20.63
2022-11-29T17:55:12.704Z,20.45
2022-11-29T17:57:58.102Z,20.35
2022-11-29T18:00:43.915Z,20.58
2022-11-29T18:03:29.069Z,19.63
2022-11-29T18:06:20.809Z,19.90
2022-11-29T18:09:09.053Z,18.83
2022-11-29T18:11:54.471Z,21.05
2022-11-29T18:14:41.330Z,20.90
2022-11-29T18:17:27.014Z,21.23
2022-11-29T18:20:14.163Z,20.30
2022-11-29T18:23:07.690Z,21.48
2022-11-29T18:26:02.386Z,21.50
2022-11-29T18:28:49.092Z,22.52
2022-11-29T18:31:37.393Z,23.13
2022-11-29T18:34:22.996Z,20.92
2022-11-29T18:37:12.429Z,21.33
2022-11-29T18:42:47.853Z,21.60
2022-11-29T18:45:37.791Z,21.55
2022-11-29T18:48:23.402Z,21.13
2022-11-29T18:51:14.411Z,21.25
2022-11-29T18:54:00.669Z,23.60
2022-11-29T18:56:46.599Z,23.83
2022-11-29T18:59:32.488Z,22.55
2022-11-29T19:02:20.345Z,24.55
2022-11-29T19:05:06.611Z,23.27
2022-11-29T19:07:52.335Z,22.85
2022-11-29T19:10:38.677Z,22.17
2022-11-29T19:13:24.216Z,23.80
2022-11-29T19:16:14.561Z,25.23
2022-11-29T19:19:00.866Z,24.08
2022-11-29T19:21:47.213Z,26.83
2022-11-29T19:24:32.941Z,24.95
2022-11-29T19:27:18.625Z,24.92
2022-11-29T19:30:04.655Z,25.50
2022-11-29T19:32:50.287Z,24.98
2022-11-29T19:35:36.009Z,24.48
2022-11-29T19:38:21.402Z,23.90
2022-11-29T19:41:24.766Z,25.02
2022-11-29T19:44:10.716Z,23.15
2022-11-29T19:46:56.509Z,24.77
2022-11-29T19:49:46.455Z,24.13
2022-11-29T19:52:32.385Z,24.42
2022-11-29T19:55:18.218Z,26.20
2022-11-29T19:58:03.629Z,25.63
2022-11-29T20:00:49.316Z,25.58
2022-11-29T20:03:35.212Z,25.75
2022-11-29T20:06:21.029Z,24.52
2022-11-29T20:09:07.124Z,27.23
2022-11-29T20:11:52.559Z,26.42
2022-11-29T20:14:38.185Z,25.35
2022-11-29T20:17:23.717Z,25.45
2022-11-29T20:20:10.173Z,25.85
2022-11-29T20:22:55.969Z,28.50
2022-11-29T20:25:41.495Z,25.70
2022-11-29T20:28:27.396Z,27.85
2022-11-29T20:31:16.314Z,27.05
2022-11-29T20:34:02.460Z,26.77
2022-11-29T20:36:59.520Z,28.25
2022-11-29T20:40:09.390Z,24.17
2022-11-29T20:43:13.586Z,26.73
2022-11-29T20:45:59.301Z,25.10
2022-11-29T20:48:45.019Z,26.60
2022-11-29T20:51:44.080Z,24.98
2022-11-29T20:54:29.412Z,27.55
2022-11-29T20:57:14.994Z,25.55
2022-11-29T21:00:00.679Z,27.08
2022-11-29T21:02:46.253Z,25.65
2022-11-29T21:05:32.900Z,25.63
2022-11-29T21:08:21.892Z,27.58
2022-11-29T21:11:10.495Z,25.75
2022-11-29T21:13:56.394Z,26.40
2022-11-29T21:16:42.185Z,25.85
2022-11-29T21:19:28.507Z,27.02
2022-11-29T21:22:45.124Z,25.90
2022-11-29T21:26:04.033Z,28.73
2022-11-29T21:29:16.871Z,25.70
2022-11-29T21:32:03.103Z,28.63
2022-11-29T21:34:48.973Z,26.60
2022-11-29T21:37:34.739Z,28.70
2022-11-29T21:40:20.426Z,28.05
2022-11-29T21:43:06.121Z,27.58
2022-11-29T21:45:51.632Z,30.17
2022-11-29T21:48:38.182Z,29.77
2022-11-29T21:51:23.880Z,28.52
2022-11-29T21:54:09.142Z,29.63
2022-11-29T21:56:55.537Z,28.45
2022-11-29T21:59:40.746Z,28.48
2022-11-29T22:02:26.435Z,26.60
2022-11-29T22:05:12.738Z,29.02
2022-11-29T22:07:58.686Z,29.55
2022-11-29T22:10:46.904Z,29.52
2022-11-29T22:13:34.501Z,31.08
2022-11-29T22:16:28.704Z,28.85
2022-11-29T22:19:22.865Z,30.60
2022-11-29T22:22:10.997Z,29.33
2022-11-29T22:24:57.170Z,28.05
2022-11-29T22:27:42.676Z,29.98
2022-11-29T22:30:28.333Z,28.83
2022-11-29T22:33:13.800Z,29.67
2022-11-29T22:36:17.218Z,26.60
2022-11-29T22:39:06.210Z,29.35
2022-11-29T22:41:54.565Z,31.33
2022-11-29T22:44:40.690Z,30.75
2022-11-29T22:47:26.665Z,28.55
2022-11-29T22:50:12.602Z,31.48
2022-11-29T22:52:57.706Z,32.08
2022-11-29T22:55:43.364Z,29.35
2022-11-29T22:58:29.257Z,31.42
2022-11-29T23:01:23.067Z,31.85
2022-11-29T23:04:10.762Z,30.20
2022-11-29T23:06:57.206Z,29.08
2022-11-29T23:09:42.828Z,29.10
2022-11-29T23:12:28.310Z,28.92
2022-11-29T23:15:14.278Z,28.85
2022-11-29T23:18:01.756Z,28.02
2022-11-29T23:20:47.267Z,28.58
2022-11-29T23:23:32.589Z,28.88
2022-11-29T23:26:22.343Z,30.58
2022-11-29T23:29:12.022Z,30.02
2022-11-29T23:31:57.787Z,28.73
2022-11-29T23:34:43.185Z,29.85
2022-11-29T23:37:28.956Z,29.25
2022-11-29T23:40:14.498Z,28.35
2022-11-29T23:42:59.934Z,29.10
2022-11-29T23:45:45.540Z,29.40
2022-11-29T23:48:30.997Z,29.50
2022-11-29T23:51:17.130Z,28.45
2022-11-29T23:54:02.333Z,28.88
2022-11-29T23:56:48.113Z,29.75
2022-11-29T23:59:33.509Z,28.92
